Time;durP1;ratioP1;P1;durP2;ratioP2;P2;SDS_P1;SDS_P2;PMS_P1;PMS_P2;Temp;Humidity;BMP_temperature;BMP_pressure;BME280_temperature;BME280_humidity;BME280_pressure;Samples;Min_cycle;Max_cycle;Signal;HPM_P1;HPM_P2
2021/07/31 00:01:34;;;;;;;14.07;8.20;;;;;;;21.39;96.24;95837.63;5016321;28;20246;-69
2021/07/31 00:04:01;;;;;;;17.60;8.10;;;;;;;21.21;96.32;95839.84;5016937;28;20240;-69
2021/07/31 00:06:28;;;;;;;17.02;8.52;;;;;;;21.26;96.11;95831.88;5016687;28;20197;-69
2021/07/31 00:08:54;;;;;;;21.77;8.48;;;;;;;21.25;96.48;95838.28;5016957;28;20213;-70
2021/07/31 00:11:20;;;;;;;18.63;9.10;;;;;;;21.31;97.69;95838.09;5016703;28;20218;-69
2021/07/31 00:13:47;;;;;;;19.02;8.88;;;;;;;21.21;97.90;95831.81;5017614;28;20579;-69
2021/07/31 00:16:13;;;;;;;17.58;7.85;;;;;;;21.22;96.71;95839.59;5015720;28;20213;-69
2021/07/31 00:18:41;;;;;;;17.48;8.10;;;;;;;21.30;97.39;95838.34;5016849;28;20198;-69
2021/07/31 00:21:09;;;;;;;17.10;8.85;;;;;;;21.26;97.51;95823.81;5017216;28;20717;-70
2021/07/31 00:23:36;;;;;;;15.10;8.38;;;;;;;21.34;98.03;95832.19;5017252;28;20206;-70
2021/07/31 00:26:02;;;;;;;18.58;8.55;;;;;;;21.07;98.29;95828.69;5015491;28;20201;-69
2021/07/31 00:28:28;;;;;;;14.57;8.75;;;;;;;21.26;97.79;95837.22;5016746;28;20221;-69
2021/07/31 00:30:55;;;;;;;19.00;8.45;;;;;;;21.00;99.02;95830.78;5014442;28;20233;-69
2021/07/31 00:33:21;;;;;;;15.07;8.13;;;;;;;20.84;98.88;95823.59;5019013;28;20198;-70
2021/07/31 00:35:49;;;;;;;13.95;7.80;;;;;;;20.94;98.43;95822.94;5016381;28;20201;-69
2021/07/31 00:38:16;;;;;;;15.02;8.07;;;;;;;21.07;97.99;95820.66;5016761;28;20210;-69
2021/07/31 00:40:42;;;;;;;13.82;7.28;;;;;;;20.61;97.83;95823.03;5016514;28;20256;-69
2021/07/31 00:43:10;;;;;;;11.30;6.93;;;;;;;21.07;96.46;95819.88;5016950;28;20219;-69
2021/07/31 00:45:37;;;;;;;13.57;7.72;;;;;;;20.63;98.51;95823.56;5016306;28;20201;-69
2021/07/31 00:48:05;;;;;;;11.90;6.82;;;;;;;20.86;97.03;95824.19;5016550;28;20202;-69
2021/07/31 00:50:32;;;;;;;13.85;7.55;;;;;;;20.79;96.97;95835.34;5016207;28;20205;-69
2021/07/31 00:53:00;;;;;;;14.60;7.07;;;;;;;20.77;96.75;95835.56;5016377;28;20289;-69
2021/07/31 00:55:28;;;;;;;13.90;7.15;;;;;;;20.78;96.46;95837.19;5016392;28;20284;-70
2021/07/31 00:57:57;;;;;;;12.38;7.47;;;;;;;20.96;97.25;95840.38;5016659;28;20248;-69
2021/07/31 01:00:23;;;;;;;14.35;7.55;;;;;;;20.67;97.84;95845.31;5016417;28;20201;-69
2021/07/31 01:02:50;;;;;;;11.82;7.38;;;;;;;20.81;97.60;95846.59;5016567;28;20206;-69
2021/07/31 01:05:17;;;;;;;18.23;7.18;;;;;;;20.49;97.64;95842.94;5015758;28;20210;-69
2021/07/31 01:07:43;;;;;;;16.05;7.03;;;;;;;20.53;97.40;95841.38;5016105;28;20202;-69
2021/07/31 01:10:12;;;;;;;13.15;7.00;;;;;;;20.90;96.21;95836.00;5016540;28;20662;-69
2021/07/31 01:12:40;;;;;;;12.30;7.22;;;;;;;20.77;97.73;95832.09;5016603;28;20198;-69
2021/07/31 01:15:08;;;;;;;13.07;6.68;;;;;;;20.64;96.64;95835.09;5016211;28;20217;-69
2021/07/31 01:17:34;;;;;;;13.45;7.00;;;;;;;20.60;97.67;95840.13;5015574;28;20216;-68
2021/07/31 01:20:01;;;;;;;12.15;6.88;;;;;;;20.60;97.22;95834.78;5016761;28;20217;-69
2021/07/31 01:22:28;;;;;;;17.15;7.43;;;;;;;20.86;96.97;95834.06;5015984;28;20918;-69
2021/07/31 01:24:55;;;;;;;12.50;7.25;;;;;;;20.18;98.59;95830.19;5016297;28;20210;-69
2021/07/31 01:27:21;;;;;;;9.85;6.18;;;;;;;20.33;98.61;95830.41;5015855;28;20202;-68
2021/07/31 01:29:48;;;;;;;13.55;7.00;;;;;;;20.21;98.11;95835.84;5016620;28;20213;-71
2021/07/31 01:32:15;;;;;;;13.35;7.00;;;;;;;19.99;99.88;95830.69;5017592;28;20253;-71
2021/07/31 01:34:41;;;;;;;12.07;6.90;;;;;;;20.36;97.70;95833.38;5020018;28;20570;-71
2021/07/31 01:37:08;;;;;;;10.52;6.68;;;;;;;20.27;97.41;95834.06;5018870;28;20206;-71
2021/07/31 01:39:35;;;;;;;13.00;6.97;;;;;;;20.68;96.50;95826.31;5019537;28;20213;-71
2021/07/31 01:42:02;;;;;;;14.52;7.07;;;;;;;20.65;96.99;95826.03;5020889;28;20253;-71
2021/07/31 01:44:29;;;;;;;14.77;7.07;;;;;;;20.38;97.74;95833.16;5020002;28;20205;-71
2021/07/31 01:46:55;;;;;;;13.70;6.90;;;;;;;20.28;97.98;95830.34;5018418;28;20206;-71
2021/07/31 01:49:22;;;;;;;11.07;6.55;;;;;;;20.31;96.94;95829.81;5019763;28;20212;-69
2021/07/31 01:51:48;;;;;;;12.55;7.10;;;;;;;20.56;97.90;95830.97;5019317;28;20214;-69
2021/07/31 01:54:14;;;;;;;16.10;7.18;;;;;;;20.80;96.54;95827.06;5019283;28;20207;-69
2021/07/31 01:56:44;;;;;;;13.02;7.13;;;;;;;20.92;97.43;95822.34;5019101;28;20205;-69
2021/07/31 01:59:10;;;;;;;14.02;6.82;;;;;;;20.52;95.70;95831.72;5019762;28;20710;-69
2021/07/31 02:01:37;;;;;;;13.35;6.38;;;;;;;20.33;97.24;95822.38;5019060;28;20710;-69
2021/07/31 02:04:03;;;;;;;15.50;7.18;;;;;;;20.47;97.45;95819.09;5019138;28;20205;-69
2021/07/31 02:06:30;;;;;;;14.90;6.47;;;;;;;20.40;96.57;95820.31;5018906;28;20206;-69
2021/07/31 02:08:56;;;;;;;13.18;7.07;;;;;;;20.43;97.37;95817.97;5018729;28;20205;-69
2021/07/31 02:11:23;;;;;;;14.35;7.20;;;;;;;20.57;96.92;95816.53;5019271;28;20668;-69
2021/07/31 02:13:51;;;;;;;13.95;7.40;;;;;;;20.92;96.57;95817.81;5019544;28;20582;-69
2021/07/31 02:16:24;;;;;;;14.00;7.03;;;;;;;20.99;96.89;95812.25;5018312;28;20217;-69
2021/07/31 02:18:51;;;;;;;14.55;7.20;;;;;;;20.91;96.64;95816.19;5018941;28;20293;-69
2021/07/31 02:21:18;;;;;;;12.13;6.78;;;;;;;20.59;95.61;95816.28;5019007;28;20316;-69
2021/07/31 02:23:45;;;;;;;12.20;6.85;;;;;;;20.84;96.00;95814.78;5019324;28;20582;-69
2021/07/31 02:26:11;;;;;;;17.20;7.40;;;;;;;20.95;96.50;95816.50;5018129;28;20208;-69
2021/07/31 02:28:38;;;;;;;11.45;6.90;;;;;;;20.96;96.24;95807.41;5018927;28;20289;-69
2021/07/31 02:31:06;;;;;;;14.68;7.35;;;;;;;21.03;96.23;95798.13;5016132;28;20225;-69
2021/07/31 02:33:32;;;;;;;13.98;7.07;;;;;;;20.92;95.78;95798.25;5018779;28;20213;-69
2021/07/31 02:36:02;;;;;;;14.52;7.50;;;;;;;20.98;96.50;95806.09;5018789;28;20726;-69
2021/07/31 02:38:29;;;;;;;13.18;7.10;;;;;;;20.98;95.74;95806.09;5018963;28;20202;-69
2021/07/31 02:40:55;;;;;;;10.85;7.32;;;;;;;20.90;94.60;95798.50;5018244;28;20232;-69
2021/07/31 02:43:22;;;;;;;16.08;7.57;;;;;;;21.06;95.20;95800.28;5017293;28;20198;-69
2021/07/31 02:45:48;;;;;;;12.13;6.85;;;;;;;21.09;95.14;95807.00;5017690;28;20217;-69
2021/07/31 02:48:16;;;;;;;14.77;7.50;;;;;;;21.08;95.73;95805.41;5018250;28;20198;-69
2021/07/31 02:50:42;;;;;;;12.52;7.28;;;;;;;21.02;95.55;95806.41;5018151;28;20226;-69
2021/07/31 02:53:09;;;;;;;13.18;6.93;;;;;;;20.87;95.87;95809.72;5018327;28;20209;-69
2021/07/31 02:55:35;;;;;;;11.23;6.95;;;;;;;20.64;94.92;95814.47;5015838;28;20223;-69
2021/07/31 02:58:02;;;;;;;12.85;7.43;;;;;;;20.88;94.81;95811.31;5018015;28;20229;-69
2021/07/31 03:00:28;;;;;;;11.52;6.97;;;;;;;20.84;95.28;95815.56;5017551;28;20697;-69
2021/07/31 03:02:54;;;;;;;16.38;6.93;;;;;;;20.78;95.13;95814.97;5018639;28;20225;-72
2021/07/31 03:05:22;;;;;;;24.73;8.40;;;;;;;20.99;95.76;95806.88;5017165;28;20226;-69
2021/07/31 03:07:49;;;;;;;15.98;7.63;;;;;;;20.88;95.90;95805.97;5017742;28;20576;-69
2021/07/31 03:10:15;;;;;;;11.15;7.30;;;;;;;20.99;95.26;95804.22;5018299;28;20213;-69
2021/07/31 03:12:41;;;;;;;15.73;7.32;;;;;;;21.07;95.41;95801.91;5018157;28;20217;-69
2021/07/31 03:15:08;;;;;;;15.52;7.47;;;;;;;20.96;95.23;95808.22;5017314;28;20210;-69
2021/07/31 03:17:35;;;;;;;25.95;8.45;;;;;;;20.96;95.59;95802.88;5017456;28;20210;-69
2021/07/31 03:20:01;;;;;;;14.30;8.02;;;;;;;20.87;95.64;95804.38;5017838;28;20212;-69
2021/07/31 03:22:29;;;;;;;14.00;7.80;;;;;;;20.94;95.82;95799.63;5016972;28;20233;-69
2021/07/31 03:24:55;;;;;;;15.52;6.95;;;;;;;20.92;94.83;95814.31;5018099;28;20567;-69
2021/07/31 03:27:22;;;;;;;11.43;7.50;;;;;;;21.05;95.15;95803.22;5017064;28;20205;-69
2021/07/31 03:29:48;;;;;;;16.13;7.55;;;;;;;21.00;94.98;95790.59;5017352;28;20202;-69
2021/07/31 03:32:14;;;;;;;13.68;7.93;;;;;;;20.98;94.85;95790.03;5014686;28;20713;-69
2021/07/31 03:34:41;;;;;;;12.73;7.13;;;;;;;20.72;94.89;95802.53;5017918;28;20198;-69
2021/07/31 03:37:07;;;;;;;12.90;7.70;;;;;;;20.99;94.82;95794.31;5016430;28;20213;-68
2021/07/31 03:39:35;;;;;;;14.55;7.68;;;;;;;21.03;95.30;95794.63;5017480;28;20232;-69
2021/07/31 03:42:01;;;;;;;16.52;6.90;;;;;;;20.91;95.21;95791.28;5017425;28;20292;-68
2021/07/31 03:44:28;;;;;;;14.68;7.80;;;;;;;20.69;96.09;95792.31;5017034;28;20202;-69
2021/07/31 03:46:54;;;;;;;11.45;7.57;;;;;;;20.76;96.25;95796.47;5016563;28;20205;-69
2021/07/31 03:49:21;;;;;;;17.33;7.82;;;;;;;20.78;95.94;95801.56;5017561;28;20403;-69
2021/07/31 03:51:48;;;;;;;16.70;7.57;;;;;;;20.83;95.39;95805.91;5017353;28;21054;-69
2021/07/31 03:54:14;;;;;;;14.70;7.95;;;;;;;20.80;95.29;95794.09;5016667;28;20202;-69
2021/07/31 03:56:42;;;;;;;20.38;7.55;;;;;;;20.61;96.18;95792.75;5016822;28;20201;-68
2021/07/31 03:59:09;;;;;;;14.77;7.70;;;;;;;20.63;96.08;95794.13;5017485;28;20202;-69
2021/07/31 04:01:35;;;;;;;13.85;7.45;;;;;;;20.67;96.10;95794.44;5016705;28;20241;-69
2021/07/31 04:04:01;;;;;;;12.90;7.68;;;;;;;20.59;95.78;95795.69;5017158;28;20221;-69
2021/07/31 04:06:28;;;;;;;15.27;8.20;;;;;;;20.60;95.69;95796.50;5017128;28;20679;-69
2021/07/31 04:08:54;;;;;;;15.95;7.57;;;;;;;20.57;96.12;95807.69;5016684;28;20583;-69
2021/07/31 04:11:21;;;;;;;13.63;7.55;;;;;;;20.63;95.78;95807.50;5016788;28;20248;-69
2021/07/31 04:13:49;;;;;;;16.30;8.32;;;;;;;20.84;95.19;95804.84;5017641;28;20229;-69
2021/07/31 04:16:15;;;;;;;15.00;7.47;;;;;;;20.27;97.79;95812.66;5016025;28;20216;-69
2021/07/31 04:18:42;;;;;;;14.77;7.88;;;;;;;20.34;97.17;95818.63;5016355;28;20210;-69
2021/07/31 04:21:09;;;;;;;18.90;8.77;;;;;;;20.53;96.56;95819.94;5017056;28;20226;-69
2021/07/31 04:23:36;;;;;;;17.33;8.95;;;;;;;20.58;96.00;95815.50;5016913;28;20221;-69
2021/07/31 04:26:13;;;;;;;24.17;9.25;;;;;;;20.69;95.26;95817.22;5015925;28;20206;-69
2021/07/31 04:28:40;;;;;;;12.90;7.22;;;;;;;20.67;95.29;95819.38;5016952;28;20697;-69
2021/07/31 04:31:10;;;;;;;14.45;8.18;;;;;;;20.69;95.45;95827.13;5013733;28;21053;-69
2021/07/31 04:33:36;;;;;;;16.65;8.07;;;;;;;20.57;95.79;95824.59;5016951;28;20202;-69
2021/07/31 04:36:03;;;;;;;15.05;8.60;;;;;;;20.57;96.44;95829.09;5015974;28;20201;-69
2021/07/31 04:38:30;;;;;;;13.95;8.80;;;;;;;20.35;97.71;95836.31;5016696;28;20356;-69
2021/07/31 04:40:56;;;;;;;19.48;8.45;;;;;;;20.16;99.07;95844.84;5016167;28;20725;-69
2021/07/31 04:43:23;;;;;;;18.45;5.93;;;;;;;19.82;93.79;95836.00;5016536;28;20236;-69
2021/07/31 04:45:49;;;;;;;8.63;5.35;;;;;;;19.94;92.42;95826.06;5016114;28;20214;-69
2021/07/31 04:48:17;;;;;;;11.63;5.18;;;;;;;20.11;92.39;95832.22;5016525;28;20198;-69
2021/07/31 04:50:43;;;;;;;8.85;4.53;;;;;;;20.00;89.69;95833.13;5016497;28;21230;-69
2021/07/31 04:53:10;;;;;;;6.18;3.90;;;;;;;19.80;86.95;95827.41;5016576;28;20205;-69
2021/07/31 04:55:36;;;;;;;8.65;3.13;;;;;;;19.67;87.02;95833.09;5015482;28;20202;-69
2021/07/31 04:58:03;;;;;;;6.85;3.35;;;;;;;19.78;86.02;95834.88;5016289;28;20206;-69
2021/07/31 05:00:29;;;;;;;7.63;3.28;;;;;;;19.77;86.11;95837.81;5016523;28;20568;-69
2021/07/31 05:02:56;;;;;;;5.07;3.05;;;;;;;19.96;86.30;95840.00;5016024;28;21137;-69
2021/07/31 05:05:23;;;;;;;8.10;2.83;;;;;;;20.21;85.13;95835.03;5017349;28;20194;-69
2021/07/31 05:07:50;;;;;;;13.27;3.60;;;;;;;20.15;84.51;95836.03;5020880;28;20213;-69
2021/07/31 05:10:16;;;;;;;12.00;2.80;;;;;;;20.35;83.98;95839.81;5019833;28;20202;-70
2021/07/31 05:12:43;;;;;;;5.70;2.67;;;;;;;20.29;83.21;95843.47;5020043;28;20212;-70
2021/07/31 05:15:10;;;;;;;9.05;3.08;;;;;;;20.40;81.79;95845.25;5019386;28;20202;-69
2021/07/31 05:17:36;;;;;;;7.45;3.00;;;;;;;20.20;81.73;95849.50;5020130;28;20210;-69
2021/07/31 05:20:03;;;;;;;7.20;3.10;;;;;;;20.17;82.88;95849.16;5020243;28;20210;-69
2021/07/31 05:22:30;;;;;;;7.95;3.03;;;;;;;20.18;83.29;95845.44;5019833;28;20234;-70
2021/07/31 05:24:57;;;;;;;6.40;3.30;;;;;;;20.25;83.54;95842.34;5020010;28;20252;-69
2021/07/31 05:27:24;;;;;;;5.72;2.72;;;;;;;20.37;82.93;95851.06;5019097;28;20194;-69
2021/07/31 05:29:50;;;;;;;7.03;2.97;;;;;;;20.25;82.80;95855.72;5019745;28;20218;-69
2021/07/31 05:32:16;;;;;;;6.85;2.92;;;;;;;20.17;82.55;95851.84;5016899;28;20259;-69
2021/07/31 05:34:43;;;;;;;7.68;3.00;;;;;;;20.13;83.02;95853.38;5019767;28;20198;-70
2021/07/31 05:37:09;;;;;;;9.20;2.88;;;;;;;20.40;82.82;95863.16;5019276;28;20215;-69
2021/07/31 05:39:37;;;;;;;7.35;3.10;;;;;;;20.76;83.23;95865.28;5019476;28;20228;-69
2021/07/31 05:42:05;;;;;;;9.68;3.20;;;;;;;20.84;83.23;95858.41;5019291;28;20233;-70
2021/07/31 05:44:32;;;;;;;8.73;3.08;;;;;;;20.74;80.88;95845.97;5019285;28;20224;-69
2021/07/31 05:46:59;;;;;;;7.10;2.80;;;;;;;20.62;79.64;95853.28;5018944;28;20209;-69
2021/07/31 05:49:25;;;;;;;6.47;3.15;;;;;;;20.50;80.94;95856.06;5019504;28;20930;-69
2021/07/31 05:51:51;;;;;;;4.50;2.78;;;;;;;20.12;83.00;95857.91;5019373;28;20230;-69
2021/07/31 05:54:18;;;;;;;8.57;3.08;;;;;;;20.42;82.16;95861.03;5019439;28;20577;-69
2021/07/31 05:56:46;;;;;;;10.75;2.97;;;;;;;20.32;82.45;95860.91;5018422;28;20205;-69
2021/07/31 05:59:12;;;;;;;5.82;2.80;;;;;;;20.32;80.71;95860.91;5019366;28;20202;-69
2021/07/31 06:01:39;;;;;;;7.95;2.70;;;;;;;20.30;81.06;95854.97;5019317;28;20226;-69
2021/07/31 06:04:05;;;;;;;7.05;2.35;;;;;;;20.54;79.40;95861.75;5019088;28;20226;-69
2021/07/31 06:06:31;;;;;;;9.40;3.58;;;;;;;20.63;80.13;95862.94;5018552;28;20218;-69
2021/07/31 06:08:58;;;;;;;6.93;3.03;;;;;;;20.49;77.51;95856.31;5019227;28;20205;-69
2021/07/31 06:11:25;;;;;;;9.18;2.58;;;;;;;20.62;78.66;95859.47;5018803;28;20694;-69
2021/07/31 06:13:53;;;;;;;8.25;3.10;;;;;;;20.92;77.75;95860.66;5019354;28;20210;-69
2021/07/31 06:16:19;;;;;;;8.38;2.72;;;;;;;20.69;77.72;95867.31;5018188;28;20292;-70
2021/07/31 06:18:46;;;;;;;6.60;2.85;;;;;;;20.71;77.67;95870.53;5018843;28;20198;-69
2021/07/31 06:21:16;;;;;;;7.15;2.60;;;;;;;20.90;75.10;95872.69;5019046;28;20226;-69
2021/07/31 06:23:43;;;;;;;8.48;2.78;;;;;;;20.96;74.81;95872.53;5018972;28;20222;-69
2021/07/31 06:26:09;;;;;;;8.48;2.58;;;;;;;21.02;74.97;95874.19;5018320;28;21269;-69
2021/07/31 06:28:36;;;;;;;10.82;3.10;;;;;;;20.94;72.83;95871.16;5018400;28;20205;-69
2021/07/31 06:31:05;;;;;;;7.18;2.35;;;;;;;21.24;73.21;95869.63;5015298;28;20240;-69
2021/07/31 06:33:31;;;;;;;5.75;2.40;;;;;;;21.12;72.74;95860.91;5019242;28;20229;-69
2021/07/31 06:35:58;;;;;;;6.18;2.42;;;;;;;21.16;72.66;95864.69;5017820;28;20212;-69
2021/07/31 06:38:24;;;;;;;5.63;2.20;;;;;;;20.89;70.02;95865.72;5018483;28;21119;-72
2021/07/31 06:40:51;;;;;;;4.65;1.83;;;;;;;20.97;70.43;95862.59;5018398;28;20229;-68
2021/07/31 06:43:17;;;;;;;11.77;3.17;;;;;;;21.01;70.90;95861.84;5018460;28;20225;-69
2021/07/31 06:45:43;;;;;;;5.90;2.28;;;;;;;21.11;69.46;95863.84;5017619;28;20216;-72
2021/07/31 06:48:11;;;;;;;6.30;2.00;;;;;;;21.14;70.40;95866.00;5018603;28;20213;-69
2021/07/31 06:50:38;;;;;;;5.40;1.92;;;;;;;21.38;70.15;95865.47;5018662;28;20221;-69
2021/07/31 06:53:04;;;;;;;3.95;1.85;;;;;;;21.16;69.32;95867.38;5017489;28;20749;-69
2021/07/31 06:55:30;;;;;;;4.45;1.90;;;;;;;21.06;67.37;95864.59;5017837;28;20697;-71
2021/07/31 06:57:57;;;;;;;8.38;2.00;;;;;;;21.00;68.98;95857.56;5018317;28;20212;-71
2021/07/31 07:00:23;;;;;;;5.75;2.40;;;;;;;21.13;67.07;95859.03;5017565;28;20202;-72
2021/07/31 07:02:50;;;;;;;7.03;2.63;;;;;;;21.41;68.24;95862.31;5018226;28;20698;-72
2021/07/31 07:05:18;;;;;;;8.68;2.20;;;;;;;21.42;66.97;95859.38;5018226;28;20202;-72
2021/07/31 07:07:44;;;;;;;7.20;2.30;;;;;;;21.22;68.36;95854.84;5017177;28;20205;-71
2021/07/31 07:10:12;;;;;;;5.43;2.40;;;;;;;21.72;69.64;95858.88;5017764;28;20213;-71
2021/07/31 07:12:38;;;;;;;9.98;2.15;;;;;;;21.54;71.20;95859.25;5018593;28;20676;-69
2021/07/31 07:15:06;;;;;;;5.35;2.35;;;;;;;21.95;67.87;95855.88;5017761;28;20201;-71
2021/07/31 07:17:32;;;;;;;6.50;2.30;;;;;;;21.53;67.08;95860.31;5016929;28;20213;-71
2021/07/31 07:19:59;;;;;;;5.30;2.30;;;;;;;21.64;68.35;95859.38;5017792;28;20208;-69
2021/07/31 07:22:26;;;;;;;4.85;2.20;;;;;;;22.14;67.28;95845.28;5017780;28;20228;-69
2021/07/31 07:24:53;;;;;;;10.25;2.72;;;;;;;22.06;66.36;95845.75;5017336;28;20205;-69
2021/07/31 07:27:19;;;;;;;7.60;2.40;;;;;;;21.75;69.08;95851.13;5016905;28;20518;-69
2021/07/31 07:29:46;;;;;;;8.90;1.90;;;;;;;21.74;66.25;95843.34;5017613;28;20209;-69
2021/07/31 07:32:12;;;;;;;4.10;2.20;;;;;;;21.84;66.09;95838.06;5013838;28;20246;-69
2021/07/31 07:34:40;;;;;;;7.03;2.17;;;;;;;22.08;67.25;95840.97;5017881;28;20226;-69
2021/07/31 07:37:06;;;;;;;6.95;2.30;;;;;;;21.97;66.47;95843.00;5017030;28;20210;-69
2021/07/31 07:39:34;;;;;;;6.05;2.13;;;;;;;22.15;65.71;95844.22;5017338;28;20212;-69
2021/07/31 07:42:03;;;;;;;6.75;3.42;;;;;;;22.19;69.65;95842.63;5017228;28;20225;-69
2021/07/31 07:44:30;;;;;;;8.23;2.30;;;;;;;22.40;66.78;95848.97;5017530;28;20249;-69
2021/07/31 07:46:56;;;;;;;5.80;2.22;;;;;;;22.67;66.35;95857.72;5016319;28;20206;-69
2021/07/31 07:49:23;;;;;;;7.55;2.20;;;;;;;22.82;64.51;95850.56;5017360;28;20205;-69
2021/07/31 07:51:49;;;;;;;10.32;2.67;;;;;;;22.92;66.01;95858.66;5017402;28;20233;-69
2021/07/31 07:54:16;;;;;;;7.25;2.40;;;;;;;23.12;64.25;95853.41;5017329;28;20202;-69
2021/07/31 07:56:43;;;;;;;4.50;2.00;;;;;;;23.32;61.88;95855.09;5016114;28;20737;-72
2021/07/31 07:59:10;;;;;;;6.22;2.10;;;;;;;23.32;61.69;95849.72;5017119;28;20206;-72
2021/07/31 08:01:37;;;;;;;5.05;2.10;;;;;;;23.30;65.70;95844.88;5016939;28;20221;-69
2021/07/31 08:04:03;;;;;;;9.70;3.00;;;;;;;23.00;64.78;95850.13;5017012;28;20236;-69
2021/07/31 08:06:30;;;;;;;8.48;2.67;;;;;;;23.06;64.38;95849.09;5016821;28;20202;-69
2021/07/31 08:08:56;;;;;;;9.77;2.35;;;;;;;23.09;62.56;95846.69;5016909;28;20202;-69
2021/07/31 08:11:23;;;;;;;5.93;2.33;;;;;;;23.43;62.88;95839.78;5016940;28;20229;-69
2021/07/31 08:13:50;;;;;;;7.50;2.42;;;;;;;23.42;65.42;95844.38;5016983;28;20464;-69
2021/07/31 08:16:17;;;;;;;9.27;2.30;;;;;;;23.66;66.09;95837.44;5016708;28;20264;-69
2021/07/31 08:18:43;;;;;;;7.35;3.33;;;;;;;23.47;65.27;95841.69;5016678;28;20202;-69
2021/07/31 08:21:10;;;;;;;10.55;2.50;;;;;;;23.44;64.24;95831.44;5016426;28;20227;-69
2021/07/31 08:23:36;;;;;;;7.28;2.53;;;;;;;23.47;64.14;95830.09;5016546;28;20222;-68
2021/07/31 08:26:05;;;;;;;5.07;2.28;;;;;;;23.66;64.47;95833.91;5015680;28;20210;-68
2021/07/31 08:28:31;;;;;;;8.30;2.20;;;;;;;23.88;65.25;95829.94;5016070;28;20206;-69
2021/07/31 08:30:59;;;;;;;6.25;2.72;;;;;;;24.11;64.28;95826.69;5012992;28;21033;-70
2021/07/31 08:33:25;;;;;;;8.02;2.60;;;;;;;24.26;60.58;95830.19;5016354;28;20240;-69
2021/07/31 08:35:52;;;;;;;4.97;2.28;;;;;;;23.92;64.19;95836.38;5015547;28;20202;-69
2021/07/31 08:38:18;;;;;;;7.32;2.40;;;;;;;23.78;62.81;95838.00;5016321;28;20231;-72
2021/07/31 08:40:45;;;;;;;5.45;2.67;;;;;;;23.64;62.25;95830.69;5018340;28;20724;-69
2021/07/31 08:43:11;;;;;;;8.65;3.35;;;;;;;24.02;61.45;95829.13;5020706;28;20230;-69
2021/07/31 08:45:40;;;;;;;8.80;2.70;;;;;;;24.04;60.12;95831.53;5019777;28;20209;-69
2021/07/31 08:48:09;;;;;;;8.50;2.78;;;;;;;24.40;59.55;95831.28;5020689;28;20202;-71
2021/07/31 08:50:38;;;;;;;8.55;3.08;;;;;;;24.55;61.40;95831.22;5020386;28;20222;-69
2021/07/31 08:53:04;;;;;;;7.30;2.92;;;;;;;24.79;61.52;95830.34;5020085;28;20201;-69
2021/07/31 08:55:31;;;;;;;9.13;2.95;;;;;;;24.82;60.41;95826.28;5019794;28;20486;-68
2021/07/31 08:58:00;;;;;;;5.40;2.90;;;;;;;25.04;60.85;95814.09;5020444;28;20249;-68
2021/07/31 09:00:26;;;;;;;5.57;2.80;;;;;;;24.77;61.35;95821.75;5020176;28;20209;-68
2021/07/31 09:02:53;;;;;;;5.45;2.60;;;;;;;24.54;60.63;95823.41;5020242;28;20220;-68
2021/07/31 09:05:31;;;;;;;10.90;2.78;;;;;;;24.27;61.25;95830.97;5019753;28;20515;-69
2021/07/31 09:08:02;;;;;;;7.18;2.63;;;;;;;23.99;61.59;95828.84;5020146;28;20205;-68
2021/07/31 09:10:30;;;;;;;6.45;2.70;;;;;;;24.02;61.35;95834.50;5020034;28;20206;-69
2021/07/31 09:12:58;;;;;;;7.07;2.50;;;;;;;24.21;64.42;95834.75;5020781;28;20218;-69
2021/07/31 09:15:33;;;;;;;4.97;2.60;;;;;;;24.43;60.85;95830.72;5019557;28;20209;-69
2021/07/31 09:18:22;;;;;;;7.22;2.55;;;;;;;24.41;62.07;95829.38;5020265;28;20210;-69
2021/07/31 09:21:09;;;;;;;6.57;2.35;;;;;;;24.11;60.59;95827.50;5019377;28;20241;-69
2021/07/31 09:23:41;;;;;;;3.50;2.30;;;;;;;24.07;60.91;95823.72;5019310;28;20946;-68
2021/07/31 09:26:08;;;;;;;12.00;2.60;;;;;;;24.65;61.81;95817.72;5019180;28;20206;-68
2021/07/31 09:28:39;;;;;;;8.25;2.47;;;;;;;24.73;59.82;95819.84;5020032;28;20206;-69
2021/07/31 09:31:05;;;;;;;4.10;2.35;;;;;;;24.54;58.07;95820.72;5016400;28;20595;-68
2021/07/31 09:33:32;;;;;;;6.10;2.70;;;;;;;24.52;58.11;95812.13;5020203;28;20213;-68
2021/07/31 09:36:04;;;;;;;6.97;2.78;;;;;;;24.91;58.24;95811.16;5018955;28;20674;-68
2021/07/31 09:38:38;;;;;;;5.97;2.70;;;;;;;24.66;60.97;95809.38;5019664;28;20221;-69
2021/07/31 09:41:32;;;;;;;6.15;2.08;;;;;;;24.72;61.33;95819.06;5019623;28;20229;-69
2021/07/31 09:44:08;;;;;;;5.13;2.53;;;;;;;24.48;61.82;95811.03;5009773;28;20226;-68
2021/07/31 09:46:40;;;;;;;5.22;2.53;;;;;;;24.40;62.76;95814.28;5019202;28;20212;-68
2021/07/31 09:49:07;;;;;;;5.20;2.65;;;;;;;24.41;62.80;95826.69;5019631;28;20201;-68
2021/07/31 09:51:37;;;;;;;10.63;2.63;;;;;;;24.55;62.71;95825.84;5019051;28;20218;-69
2021/07/31 09:54:07;;;;;;;7.18;2.30;;;;;;;24.26;61.25;95822.09;5019487;28;20530;-68
2021/07/31 09:56:39;;;;;;;6.28;2.60;;;;;;;24.14;62.10;95828.84;5018952;28;20301;-69
2021/07/31 09:59:07;;;;;;;7.30;2.25;;;;;;;24.01;61.90;95822.09;5019402;28;20279;-68
2021/07/31 10:01:35;;;;;;;3.35;2.10;;;;;;;24.14;60.65;95821.56;5018770;28;20811;-68
2021/07/31 10:04:03;;;;;;;3.15;1.92;;;;;;;23.99;60.64;95813.50;5019261;28;20237;-68
2021/07/31 10:06:31;;;;;;;5.45;2.15;;;;;;;24.23;59.09;95813.75;5018373;28;21183;-69
2021/07/31 10:08:59;;;;;;;3.35;1.88;;;;;;;24.47;59.12;95812.13;5019328;28;20221;-69
2021/07/31 10:11:27;;;;;;;6.38;2.05;;;;;;;24.44;58.78;95810.78;5019219;28;20920;-68
2021/07/31 10:13:55;;;;;;;7.35;2.00;;;;;;;24.52;58.92;95812.13;5019140;28;20308;-69
2021/07/31 10:16:21;;;;;;;3.72;1.95;;;;;;;24.32;60.73;95801.34;5017978;28;20225;-69
2021/07/31 10:18:56;;;;;;;5.80;2.10;;;;;;;24.67;59.18;95800.22;5018981;28;21108;-69
2021/07/31 10:21:23;;;;;;;5.88;2.40;;;;;;;24.61;61.53;95804.00;5018798;28;20220;-69
2021/07/31 10:24:00;;;;;;;6.38;2.15;;;;;;;25.17;56.71;95800.03;5018963;28;20236;-69
2021/07/31 10:26:27;;;;;;;12.38;2.70;;;;;;;25.21;54.39;95801.88;5018445;28;20205;-69
2021/07/31 10:28:53;;;;;;;5.75;2.05;;;;;;;25.24;53.56;95797.81;5018075;28;21124;-69
2021/07/31 10:31:33;;;;;;;3.20;1.80;;;;;;;25.35;53.12;95804.78;5015857;28;20229;-69
2021/07/31 10:34:00;;;;;;;3.83;1.85;;;;;;;24.91;53.45;95803.91;5018978;28;20201;-69
2021/07/31 10:36:31;;;;;;;4.60;2.05;;;;;;;24.54;55.92;95799.97;5017949;28;20781;-69
2021/07/31 10:39:00;;;;;;;6.63;2.35;;;;;;;24.81;55.40;95801.25;5018836;28;20202;-69
2021/07/31 10:41:55;;;;;;;4.32;1.85;;;;;;;25.06;55.50;95803.84;5019384;28;20228;-69
2021/07/31 10:44:22;;;;;;;5.07;1.83;;;;;;;24.68;55.61;95804.53;5018078;28;20225;-69
2021/07/31 10:46:49;;;;;;;4.47;1.90;;;;;;;24.37;57.09;95804.84;5017246;28;20722;-68
2021/07/31 10:49:35;;;;;;;4.82;1.85;;;;;;;24.58;53.96;95809.16;5019227;28;20585;-68
2021/07/31 10:52:02;;;;;;;6.85;2.00;;;;;;;24.65;56.81;95806.97;5018666;28;20271;-69
2021/07/31 10:55:01;;;;;;;6.85;2.00;;;;;;;25.08;55.86;95804.38;5017913;28;20554;-69
2021/07/31 10:58:06;;;;;;;7.07;1.80;;;;;;;25.26;55.33;95799.16;5013434;28;20206;-69
2021/07/31 11:00:34;;;;;;;6.10;1.80;;;;;;;25.38;53.71;95799.66;5017995;28;20267;-69
2021/07/31 11:03:04;;;;;;;5.13;1.67;;;;;;;25.85;53.28;95792.59;5016947;28;20209;-69
2021/07/31 11:06:03;;;;;;;4.07;2.00;;;;;;;26.29;55.24;95793.28;5017280;28;20225;-69
2021/07/31 11:08:31;;;;;;;3.30;1.95;;;;;;;26.35;49.19;95786.78;5017837;28;20212;-69
2021/07/31 11:11:00;;;;;;;5.53;1.83;;;;;;;26.62;52.97;95787.81;5017738;28;20225;-69
2021/07/31 11:13:51;;;;;;;10.02;2.40;;;;;;;26.75;51.46;95795.25;5017980;28;20205;-69
2021/07/31 11:16:20;;;;;;;2.78;1.65;;;;;;;26.71;50.47;95794.22;5016517;28;20213;-69
2021/07/31 11:18:48;;;;;;;5.43;1.80;;;;;;;26.92;52.18;95792.06;5017985;28;20240;-68
2021/07/31 11:21:16;;;;;;;4.93;2.08;;;;;;;26.49;50.28;95782.31;5017761;28;20257;-68
2021/07/31 11:23:44;;;;;;;3.60;1.88;;;;;;;26.34;51.94;95782.47;5017046;28;20263;-68
2021/07/31 11:26:12;;;;;;;7.00;1.92;;;;;;;26.03;49.23;95774.88;5016781;28;20225;-68
2021/07/31 11:28:39;;;;;;;8.57;2.03;;;;;;;25.97;49.56;95770.63;5017895;28;20206;-67
2021/07/31 11:31:16;;;;;;;7.78;2.13;;;;;;;26.24;53.91;95779.81;5015783;28;20233;-68
2021/07/31 11:33:43;;;;;;;3.92;1.70;;;;;;;25.81;51.71;95781.84;5017346;28;20213;-69